Time;durP1;ratioP1;P1;durP2;ratioP2;P2;SDS_P1;SDS_P2;PMS_P1;PMS_P2;Temp;Humidity;BMP_temperature;BMP_pressure;BME280_temperature;BME280_humidity;BME280_pressure;Samples;Min_cycle;Max_cycle;Signal;HPM_P1;HPM_P2
2023/07/14 00:01:42;;;;;;;4.17;2.67;;;16.70;99.90;;;;;;5137034;27;20020;-74
2023/07/14 00:04:16;;;;;;;4.18;2.13;;;16.70;99.90;;;;;;5136460;27;20050;-74
2023/07/14 00:06:43;;;;;;;6.47;2.67;;;16.70;99.90;;;;;;5141359;27;20019;-73
2023/07/14 00:09:35;;;;;;;7.47;2.40;;;16.50;99.90;;;;;;5137765;27;20045;-76
2023/07/14 00:12:01;;;;;;;3.47;2.42;;;16.60;99.90;;;;;;5140669;27;20042;-74
2023/07/14 00:14:27;;;;;;;6.38;2.97;;;16.50;99.90;;;;;;5140473;27;20398;-73
2023/07/14 00:16:53;;;;;;;5.65;2.33;;;16.60;99.90;;;;;;5138250;27;20027;-73
2023/07/14 00:19:19;;;;;;;7.57;2.60;;;16.50;99.90;;;;;;5143170;27;20091;-72
2023/07/14 00:21:46;;;;;;;6.65;2.10;;;16.70;99.90;;;;;;5142962;27;20027;-74
2023/07/14 00:24:16;;;;;;;8.32;2.60;;;16.60;99.90;;;;;;5144049;27;20035;-73
2023/07/14 00:26:46;;;;;;;7.95;2.78;;;16.60;99.90;;;;;;5138351;27;20054;-75
2023/07/14 00:29:38;;;;;;;6.40;2.83;;;16.50;99.90;;;;;;5143857;27;20118;-74
2023/07/14 00:32:22;;;;;;;7.30;2.40;;;16.50;99.90;;;;;;5141407;27;20023;-74
2023/07/14 00:34:48;;;;;;;7.28;2.65;;;16.60;99.90;;;;;;5141901;27;20019;-73
2023/07/14 00:37:14;;;;;;;8.68;2.90;;;16.60;99.90;;;;;;5147804;27;20042;-73
2023/07/14 00:39:40;;;;;;;5.68;2.20;;;16.40;99.90;;;;;;5139631;27;20034;-74
2023/07/14 00:42:12;;;;;;;5.80;2.22;;;16.40;99.90;;;;;;5140487;27;20026;-74
2023/07/14 00:44:38;;;;;;;8.07;2.72;;;16.40;99.90;;;;;;5146033;27;20402;-73
2023/07/14 00:47:17;;;;;;;8.50;2.70;;;16.30;99.90;;;;;;5140237;27;20125;-73
2023/07/14 00:49:43;;;;;;;6.28;2.28;;;16.20;99.90;;;;;;5140377;27;20611;-74
2023/07/14 00:52:19;;;;;;;4.97;2.90;;;16.20;99.90;;;;;;5143582;27;20054;-73
2023/07/14 00:54:49;;;;;;;7.88;2.80;;;16.30;99.90;;;;;;5140503;27;20031;-74
2023/07/14 00:57:16;;;;;;;5.85;2.20;;;16.20;99.90;;;;;;5140862;27;20027;-73
2023/07/14 00:59:42;;;;;;;5.78;3.15;;;16.20;99.90;;;;;;5138339;27;20450;-74
2023/07/14 01:02:10;;;;;;;7.87;3.10;;;16.20;99.90;;;;;;5138080;27;20105;-73
2023/07/14 01:04:38;;;;;;;11.95;2.90;;;16.00;99.90;;;;;;5141114;27;20473;-75
2023/07/14 01:07:04;;;;;;;9.13;3.22;;;16.00;99.90;;;;;;5142256;27;20023;-74
2023/07/14 01:09:31;;;;;;;6.57;2.50;;;16.00;99.90;;;;;;5136352;27;20513;-72
2023/07/14 01:11:58;;;;;;;4.25;3.00;;;16.10;99.90;;;;;;5146547;27;20019;-74
2023/07/14 01:14:33;;;;;;;12.10;2.80;;;16.00;99.90;;;;;;5140679;27;20030;-79
2023/07/14 01:17:01;;;;;;;7.82;2.67;;;16.00;99.90;;;;;;5135507;27;20123;-74
2023/07/14 01:19:29;;;;;;;5.70;2.40;;;16.00;99.90;;;;;;5136779;27;20019;-74
2023/07/14 01:22:18;;;;;;;9.07;2.65;;;15.90;99.90;;;;;;5139701;27;20034;-75
2023/07/14 01:25:03;;;;;;;5.03;2.67;;;15.90;99.90;;;;;;5138136;27;20371;-75
2023/07/14 01:27:29;;;;;;;5.38;2.60;;;15.80;99.90;;;;;;5132655;27;20042;-74
2023/07/14 01:29:56;;;;;;;5.13;2.80;;;15.80;99.90;;;;;;5141821;27;20030;-79
2023/07/14 01:32:23;;;;;;;5.68;2.60;;;15.70;99.90;;;;;;5136025;27;20440;-76
2023/07/14 01:34:50;;;;;;;4.18;2.55;;;15.60;99.90;;;;;;5138917;27;20111;-75
2023/07/14 01:37:19;;;;;;;;;;;15.60;99.90;;;;;;5143323;27;20076;-75
2023/07/14 01:39:45;;;;;;;5.90;2.83;;;15.60;99.90;;;;;;5139292;27;19922;-77
2023/07/14 01:42:11;;;;;;;;;;;15.50;99.90;;;;;;5139132;27;20045;-73
2023/07/14 01:44:38;;;;;;;3.90;2.80;;;15.50;99.90;;;;;;5141272;27;20312;-74
2023/07/14 01:47:07;;;;;;;7.25;2.70;;;15.40;99.90;;;;;;5140379;27;20017;-75
2023/07/14 01:49:49;;;;;;;5.05;2.78;;;15.60;99.90;;;;;;5141379;27;20031;-73
2023/07/14 01:52:22;;;;;;;12.70;3.10;;;15.40;99.90;;;;;;5143848;27;20033;-74
2023/07/14 01:55:12;;;;;;;7.30;2.63;;;15.40;99.90;;;;;;5140423;27;20118;-75
2023/07/14 01:57:38;;;;;;;3.95;2.70;;;15.40;99.90;;;;;;5139466;27;20106;-73
2023/07/14 02:00:11;;;;;;;4.03;2.78;;;15.30;99.90;;;;;;5133210;27;20079;-74
2023/07/14 02:02:38;;;;;;;11.02;3.00;;;15.40;99.90;;;;;;5142039;27;20027;-74
2023/07/14 02:05:19;;;;;;;7.88;2.63;;;15.20;99.90;;;;;;5135032;27;20027;-73
2023/07/14 02:07:46;;;;;;;8.85;3.50;;;15.20;99.90;;;;;;5139862;27;20027;-77
2023/07/14 02:10:19;;;;;;;6.10;3.75;;;15.30;99.90;;;;;;5137510;27;20037;-75
2023/07/14 02:12:46;;;;;;;5.18;2.70;;;15.20;99.90;;;;;;5141841;27;20027;-73
2023/07/14 02:15:25;;;;;;;6.20;3.13;;;15.10;99.90;;;;;;5146521;27;20512;-75
2023/07/14 02:17:52;;;;;;;9.50;3.13;;;15.10;99.90;;;;;;5140154;27;20087;-74
2023/07/14 02:20:36;;;;;;;7.93;3.42;;;15.10;99.90;;;;;;5150080;27;20367;-77
2023/07/14 02:23:05;;;;;;;13.48;3.35;;;15.10;99.90;;;;;;5147823;27;20062;-73
2023/07/14 02:25:37;;;;;;;9.32;3.55;;;15.10;99.90;;;;;;5145538;27;20026;-75
2023/07/14 02:28:02;;;;;;;4.63;2.70;;;15.10;99.90;;;;;;5144376;27;20027;-74
2023/07/14 02:30:30;;;;;;;7.53;3.70;;;15.00;99.90;;;;;;5142998;27;20041;-74
2023/07/14 02:33:02;;;;;;;12.52;3.13;;;15.00;99.90;;;;;;5146738;27;20083;-75
2023/07/14 02:36:00;;;;;;;6.28;3.50;;;15.10;99.90;;;;;;5140632;27;20105;-77
2023/07/14 02:38:26;;;;;;;7.38;3.00;;;15.00;99.90;;;;;;5144175;27;20471;-75
2023/07/14 02:41:15;;;;;;;5.50;3.50;;;15.20;99.90;;;;;;5147383;27;20126;-74
2023/07/14 02:43:41;;;;;;;4.47;2.90;;;15.10;99.90;;;;;;5139854;27;20025;-74
2023/07/14 02:46:15;;;;;;;4.90;3.10;;;15.00;99.90;;;;;;5145935;27;20016;-74
2023/07/14 02:48:44;;;;;;;6.25;2.90;;;15.00;99.90;;;;;;5142846;27;20014;-74
2023/07/14 02:51:10;;;;;;;7.32;2.97;;;15.00;99.90;;;;;;5139199;27;20482;-74
2023/07/14 02:53:36;;;;;;;4.63;2.92;;;14.90;99.90;;;;;;5144121;27;20030;-75
2023/07/14 02:56:03;;;;;;;8.40;3.28;;;14.90;99.90;;;;;;5143493;27;20088;-73
2023/07/14 02:58:29;;;;;;;;;;;14.80;99.90;;;;;;5145528;27;20047;-74
2023/07/14 03:00:54;;;;;;;6.13;3.60;;;14.80;99.90;;;;;;5144938;27;19953;-77
2023/07/14 03:03:20;;;;;;;13.83;4.07;;;14.60;99.90;;;;;;5142298;27;20076;-77
2023/07/14 03:05:46;;;;;;;7.63;3.63;;;14.60;99.90;;;;;;5142268;27;20027;-77
2023/07/14 03:08:16;;;;;;;6.03;3.83;;;14.60;99.90;;;;;;5139958;27;20027;-74
2023/07/14 03:10:55;;;;;;;10.15;3.42;;;14.60;99.90;;;;;;5141041;27;20027;-74
2023/07/14 03:13:21;;;;;;;7.38;3.38;;;14.60;99.90;;;;;;5139914;27;20023;-75
2023/07/14 03:15:46;;;;;;;8.13;3.60;;;14.60;99.90;;;;;;5140534;27;20026;-75
2023/07/14 03:18:14;;;;;;;9.23;3.17;;;14.60;99.90;;;;;;5148868;27;20034;-75
2023/07/14 03:20:40;;;;;;;7.00;3.20;;;14.70;99.90;;;;;;5140757;27;20110;-74
2023/07/14 03:23:06;;;;;;;8.88;3.92;;;14.70;99.90;;;;;;5138967;27;20478;-74
2023/07/14 03:25:35;;;;;;;4.37;3.23;;;14.70;99.90;;;;;;5143254;27;20080;-75
2023/07/14 03:28:02;;;;;;;5.28;3.30;;;14.60;99.90;;;;;;5147281;27;20253;-75
2023/07/14 03:30:36;;;;;;;4.97;3.08;;;14.60;99.90;;;;;;5142420;27;20038;-75
2023/07/14 03:33:02;;;;;;;12.68;3.88;;;14.50;99.90;;;;;;5147423;27;20073;-76
2023/07/14 03:35:27;;;;;;;6.07;3.43;;;14.60;99.90;;;;;;5139811;27;20050;-76
2023/07/14 03:37:53;;;;;;;8.47;3.57;;;14.70;99.90;;;;;;5146531;27;20034;-74
2023/07/14 03:40:18;;;;;;;6.57;3.83;;;14.60;99.90;;;;;;5147190;27;20090;-74
2023/07/14 03:42:44;;;;;;;8.47;3.43;;;14.60;99.90;;;;;;5142614;27;20019;-73
2023/07/14 03:45:10;;;;;;;8.90;3.70;;;14.50;99.90;;;;;;5141036;27;20066;-74
2023/07/14 03:47:39;;;;;;;6.57;3.50;;;14.60;99.90;;;;;;5145913;27;20171;-75
2023/07/14 03:50:06;;;;;;;8.68;3.33;;;14.70;99.90;;;;;;5139392;27;20306;-74
2023/07/14 03:52:32;;;;;;;6.82;3.20;;;14.70;99.90;;;;;;5142431;27;20018;-75
2023/07/14 03:54:58;;;;;;;6.27;3.33;;;14.70;99.90;;;;;;5141043;27;20031;-74
2023/07/14 03:57:23;;;;;;;5.63;3.63;;;14.60;99.90;;;;;;5139450;27;20031;-76
2023/07/14 03:59:49;;;;;;;7.87;4.07;;;14.60;99.90;;;;;;5138087;27;20042;-74
2023/07/14 04:02:14;;;;;;;10.80;3.60;;;14.60;99.90;;;;;;5145167;27;20022;-79
2023/07/14 04:04:40;;;;;;;5.83;3.83;;;14.50;99.90;;;;;;5138476;27;20019;-75
2023/07/14 04:07:07;;;;;;;9.00;3.87;;;14.50;99.90;;;;;;5135545;27;20027;-74
2023/07/14 04:09:33;;;;;;;6.50;3.50;;;14.50;99.90;;;;;;5138244;27;20101;-76
2023/07/14 04:11:58;;;;;;;9.35;3.17;;;14.50;99.90;;;;;;5142737;27;20109;-76
2023/07/14 04:14:24;;;;;;;9.50;5.47;;;14.60;99.90;;;;;;5139950;27;20129;-76
2023/07/14 04:16:50;;;;;;;7.43;4.53;;;14.50;99.90;;;;;;5144490;27;20030;-76
2023/07/14 04:19:15;;;;;;;12.93;4.80;;;14.40;99.90;;;;;;5146665;27;20182;-74
2023/07/14 04:21:41;;;;;;;10.57;4.28;;;14.40;99.90;;;;;;5138241;27;20069;-75
2023/07/14 04:24:07;;;;;;;14.38;4.72;;;14.40;99.90;;;;;;5141462;27;20047;-77
2023/07/14 04:26:33;;;;;;;4.67;3.13;;;14.50;99.90;;;;;;5141087;27;20023;-77
2023/07/14 04:28:59;;;;;;;7.90;3.87;;;14.30;99.90;;;;;;5145803;27;20371;-77
2023/07/14 04:31:24;;;;;;;4.00;3.00;;;14.40;99.90;;;;;;5141033;27;20038;-74
2023/07/14 04:33:51;;;;;;;8.70;4.07;;;14.30;99.90;;;;;;5136531;27;20035;-74
2023/07/14 04:36:18;;;;;;;11.57;3.60;;;14.20;99.90;;;;;;5138211;27;20034;-74
2023/07/14 04:39:03;;;;;;;5.47;3.05;;;14.20;99.90;;;;;;5140358;27;20038;-77
2023/07/14 04:41:29;;;;;;;12.75;3.97;;;14.20;99.90;;;;;;5136806;27;20414;-75
2023/07/14 04:43:55;;;;;;;5.53;3.40;;;14.20;99.90;;;;;;5143234;27;20023;-80
2023/07/14 04:46:20;;;;;;;9.50;3.53;;;14.30;99.90;;;;;;5141257;27;20142;-75
2023/07/14 04:48:48;;;;;;;5.83;3.50;;;14.30;99.90;;;;;;5136819;27;20031;-74
2023/07/14 04:51:14;;;;;;;6.82;4.03;;;14.40;99.90;;;;;;5137622;27;20022;-76
2023/07/14 04:53:39;;;;;;;9.60;3.92;;;14.50;99.90;;;;;;5137048;27;20501;-74
2023/07/14 04:56:05;;;;;;;10.20;3.93;;;14.70;99.90;;;;;;5134830;27;20031;-74
2023/07/14 04:58:31;;;;;;;5.60;3.50;;;14.60;99.90;;;;;;5136322;27;20482;-74
2023/07/14 05:00:57;;;;;;;6.47;3.60;;;14.80;99.90;;;;;;5140086;27;20106;-76
2023/07/14 05:03:23;;;;;;;8.47;3.83;;;14.80;99.90;;;;;;5135875;27;20064;-76
2023/07/14 05:05:49;;;;;;;5.38;3.40;;;14.80;99.90;;;;;;5133005;27;20860;-74
2023/07/14 05:08:14;;;;;;;6.43;3.27;;;15.00;99.90;;;;;;5138650;27;20030;-74
2023/07/14 05:10:40;;;;;;;6.87;3.90;;;15.10;99.90;;;;;;5133793;27;20047;-75
2023/07/14 05:13:07;;;;;;;22.47;5.10;;;15.30;99.90;;;;;;5135805;27;20041;-73
2023/07/14 05:15:33;;;;;;;8.90;3.40;;;15.20;99.90;;;;;;5134948;27;20516;-74
2023/07/14 05:17:58;;;;;;;6.73;3.77;;;15.40;99.90;;;;;;5137074;27;20031;-78
2023/07/14 05:20:25;;;;;;;8.60;3.77;;;15.50;99.90;;;;;;5134807;27;20039;-76
2023/07/14 05:22:53;;;;;;;9.30;3.80;;;15.70;99.90;;;;;;5133080;27;20030;-75
2023/07/14 05:25:19;;;;;;;13.65;4.30;;;15.90;99.90;;;;;;5136114;27;20034;-74
2023/07/14 05:27:45;;;;;;;8.18;4.03;;;15.80;99.90;;;;;;5137275;27;20547;-79
2023/07/14 05:30:14;;;;;;;7.03;3.20;;;16.30;99.90;;;;;;5139526;27;20046;-75
2023/07/14 05:32:42;;;;;;;10.40;3.67;;;16.30;99.90;;;;;;5141628;27;20070;-81
2023/07/14 05:35:08;;;;;;;6.28;3.80;;;17.70;99.90;;;;;;5136331;27;20126;-81
2023/07/14 05:37:34;;;;;;;7.88;3.67;;;20.30;95.40;;;;;;5132372;27;20098;-75
2023/07/14 05:39:59;;;;;;;6.63;2.50;;;20.50;92.00;;;;;;5137795;27;20059;-79
2023/07/14 05:42:25;;;;;;;8.70;3.57;;;19.50;92.10;;;;;;5138462;27;20068;-74
2023/07/14 05:44:51;;;;;;;5.93;2.90;;;19.30;91.50;;;;;;5135776;27;20050;-76
2023/07/14 05:47:16;;;;;;;6.60;3.77;;;20.60;91.30;;;;;;5137218;27;20041;-75
2023/07/14 05:49:42;;;;;;;5.37;2.70;;;21.20;90.20;;;;;;5137413;27;20295;-78
2023/07/14 05:52:10;;;;;;;8.93;2.88;;;22.90;83.10;;;;;;5138100;27;20110;-77
2023/07/14 05:54:36;;;;;;;6.03;2.80;;;21.80;81.70;;;;;;5136824;27;20487;-74
2023/07/14 05:57:02;;;;;;;10.52;3.50;;;20.80;84.40;;;;;;5138519;27;20029;-74
2023/07/14 05:59:28;;;;;;;6.03;2.47;;;21.00;84.40;;;;;;5137009;27;20572;-77
2023/07/14 06:01:53;;;;;;;13.68;3.08;;;21.90;83.90;;;;;;5143059;27;20027;-72
2023/07/14 06:04:19;;;;;;;7.53;3.20;;;23.10;78.80;;;;;;5139578;27;20038;-75
2023/07/14 06:06:45;;;;;;;4.38;2.97;;;22.70;79.90;;;;;;5134672;27;20483;-75
2023/07/14 06:09:13;;;;;;;6.35;2.90;;;22.10;81.30;;;;;;5135608;27;20835;-73
2023/07/14 06:11:39;;;;;;;5.15;2.55;;;22.70;79.70;;;;;;5139328;27;20382;-72
2023/07/14 06:14:05;;;;;;;6.78;2.80;;;22.00;83.60;;;;;;5139351;27;20082;-75
2023/07/14 06:16:31;;;;;;;8.02;3.20;;;23.70;78.90;;;;;;5137140;27;20079;-73
2023/07/14 06:18:56;;;;;;;7.13;2.58;;;25.30;73.40;;;;;;5139602;27;20031;-72
2023/07/14 06:21:22;;;;;;;9.67;2.97;;;23.30;74.90;;;;;;5135298;27;20414;-74
2023/07/14 06:23:48;;;;;;;5.50;2.50;;;24.00;76.00;;;;;;5138483;27;20023;-73
2023/07/14 06:26:14;;;;;;;6.27;3.07;;;24.90;73.00;;;;;;5142154;27;20029;-73
2023/07/14 06:28:41;;;;;;;;;;;25.70;70.50;;;;;;5136684;27;20034;-75
2023/07/14 06:31:06;;;;;;;4.00;2.95;;;27.40;66.00;;;;;;5134916;27;20389;-72
2023/07/14 06:33:33;;;;;;;6.18;2.75;;;27.80;63.30;;;;;;5137112;27;20158;-71
2023/07/14 06:35:59;;;;;;;7.25;2.90;;;24.10;69.90;;;;;;5139780;27;20095;-74
2023/07/14 06:38:26;;;;;;;6.45;2.75;;;21.60;77.80;;;;;;5139275;27;20027;-74
2023/07/14 06:40:56;;;;;;;8.07;2.55;;;21.70;78.30;;;;;;5139279;27;20046;-73
2023/07/14 06:43:22;;;;;;;3.03;2.25;;;22.00;75.40;;;;;;5135146;27;20031;-71
2023/07/14 06:45:48;;;;;;;6.80;2.60;;;23.00;76.50;;;;;;5140129;27;20393;-71
2023/07/14 06:48:14;;;;;;;3.90;2.30;;;22.80;78.90;;;;;;5143105;27;20031;-71
2023/07/14 06:50:39;;;;;;;8.05;2.35;;;23.50;74.80;;;;;;5135347;27;20077;-72
2023/07/14 06:53:05;;;;;;;8.07;2.53;;;24.10;75.20;;;;;;5135716;27;20101;-68
2023/07/14 06:55:31;;;;;;;10.48;2.63;;;24.30;73.00;;;;;;5135123;27;20023;-67
2023/07/14 06:57:56;;;;;;;7.97;2.27;;;24.00;73.60;;;;;;5140338;27;20118;-65
2023/07/14 07:00:22;;;;;;;7.13;2.60;;;22.80;74.70;;;;;;5137275;27;20038;-67
2023/07/14 07:02:48;;;;;;;6.07;2.67;;;22.40;77.20;;;;;;5137238;27;20494;-67
2023/07/14 07:05:14;;;;;;;5.80;2.87;;;23.10;76.10;;;;;;5136956;27;20044;-68
2023/07/14 07:07:39;;;;;;;7.38;2.97;;;22.50;78.00;;;;;;5138190;27;20031;-68
2023/07/14 07:10:06;;;;;;;13.02;2.60;;;22.30;77.70;;;;;;5139899;27;20066;-67
2023/07/14 07:12:32;;;;;;;11.68;3.22;;;22.70;78.50;;;;;;5135082;27;20031;-66
2023/07/14 07:14:57;;;;;;;4.77;2.40;;;22.90;78.10;;;;;;5145782;27;20035;-67
2023/07/14 07:17:23;;;;;;;6.53;3.10;;;22.80;78.40;;;;;;5136052;27;20280;-70
2023/07/14 07:19:49;;;;;;;150.10;26.00;;;22.60;79.20;;;;;;5137797;27;20023;-70
2023/07/14 07:22:14;;;;;;;8.73;3.33;;;22.40;78.40;;;;;;5138414;27;20582;-67
2023/07/14 07:24:40;;;;;;;9.85;3.15;;;22.20;79.30;;;;;;5141483;27;20410;-71
2023/07/14 07:27:06;;;;;;;8.93;3.57;;;22.00;78.60;;;;;;5139975;27;20113;-69
2023/07/14 07:29:32;;;;;;;13.35;4.30;;;22.00;80.30;;;;;;5143445;27;20474;-70
2023/07/14 07:31:57;;;;;;;5.50;2.30;;;21.50;80.60;;;;;;5136040;27;20020;-69
2023/07/14 07:34:23;;;;;;;9.13;3.13;;;21.60;82.40;;;;;;5139235;27;20787;-71
2023/07/14 07:36:49;;;;;;;3.47;2.27;;;21.60;82.50;;;;;;5145266;27;20017;-67
2023/07/14 07:39:14;;;;;;;5.97;2.60;;;21.50;81.40;;;;;;5145186;27;20331;-68
2023/07/14 07:41:40;;;;;;;6.37;2.60;;;21.50;80.40;;;;;;5139219;27;20371;-69
2023/07/14 07:44:09;;;;;;;4.87;2.80;;;21.50;80.80;;;;;;5143442;27;20292;-70
2023/07/14 07:46:36;;;;;;;6.22;2.50;;;21.60;81.00;;;;;;5134676;27;20559;-69
2023/07/14 07:49:02;;;;;;;8.48;2.58;;;21.70;81.40;;;;;;5134591;27;20044;-67
2023/07/14 07:51:28;;;;;;;5.90;2.85;;;21.80;82.30;;;;;;5139895;27;20433;-71
2023/07/14 07:53:54;;;;;;;6.53;2.50;;;21.90;82.40;;;;;;5141163;27;20079;-70
2023/07/14 07:56:20;;;;;;;7.20;2.63;;;21.70;82.10;;;;;;5140199;27;20035;-67
2023/07/14 07:58:46;;;;;;;7.75;3.15;;;21.90;82.80;;;;;;5139767;27;20098;-69
2023/07/14 08:01:19;;;;;;;7.03;2.78;;;21.80;83.40;;;;;;5138434;27;20515;-71
2023/07/14 08:03:44;;;;;;;3.95;2.55;;;21.90;84.00;;;;;;5142544;27;20463;-68
2023/07/14 08:06:10;;;;;;;7.03;2.70;;;22.10;80.70;;;;;;5134557;27;20026;-70
2023/07/14 08:08:36;;;;;;;17.20;3.67;;;22.10;81.20;;;;;;5135829;27;20281;-68
2023/07/14 08:11:02;;;;;;;7.07;3.03;;;21.80;82.40;;;;;;5137553;27;20068;-68
2023/07/14 08:13:28;;;;;;;3.28;2.53;;;21.70;81.20;;;;;;5138413;27;20315;-68
2023/07/14 08:15:55;;;;;;;4.78;2.47;;;22.00;83.00;;;;;;5141127;27;20072;-68
2023/07/14 08:18:22;;;;;;;8.30;3.20;;;22.70;80.80;;;;;;5135885;27;20075;-68
2023/07/14 08:20:49;;;;;;;5.15;2.92;;;25.00;75.00;;;;;;5134473;27;20031;-66
2023/07/14 08:23:16;;;;;;;4.10;2.38;;;28.40;67.60;;;;;;5138130;27;20546;-66
2023/07/14 08:25:42;;;;;;;4.53;1.90;;;28.00;64.30;;;;;;5136861;27;20022;-68
2023/07/14 08:28:08;;;;;;;7.45;2.40;;;25.40;67.60;;;;;;5141190;27;20034;-66
2023/07/14 08:30:33;;;;;;;4.97;2.20;;;25.70;69.90;;;;;;5138648;27;20134;-67
2023/07/14 08:32:59;;;;;;;4.83;2.70;;;28.10;64.50;;;;;;5141653;27;20530;-66
2023/07/14 08:35:25;;;;;;;6.50;2.87;;;31.20;60.00;;;;;;5143008;27;20284;-68
2023/07/14 08:37:50;;;;;;;4.60;1.98;;;32.90;53.70;;;;;;5138901;27;20041;-66
2023/07/14 08:40:28;;;;;;;10.90;2.38;;;31.70;52.30;;;;;;5139719;27;20494;-66
2023/07/14 08:43:23;;;;;;;4.93;2.10;;;31.00;52.80;;;;;;5142942;27;20031;-67
2023/07/14 08:46:34;;;;;;;4.10;1.90;;;30.30;54.60;;;;;;5136149;27;20595;-67
2023/07/14 08:49:12;;;;;;;3.30;2.03;;;32.50;53.00;;;;;;5118947;27;20051;-67
2023/07/14 08:51:43;;;;;;;4.88;2.38;;;30.80;55.90;;;;;;5140593;27;20019;-66
2023/07/14 08:54:22;;;;;;;5.10;1.73;;;31.30;56.00;;;;;;5135968;27;20035;-67
2023/07/14 08:56:49;;;;;;;4.60;1.90;;;29.50;58.20;;;;;;5141238;27;20023;-68
2023/07/14 08:59:34;;;;;;;4.18;2.00;;;28.70;60.90;;;;;;5137612;27;20045;-68
2023/07/14 09:02:02;;;;;;;4.53;1.90;;;27.90;61.60;;;;;;5140734;27;20177;-69
2023/07/14 09:04:34;;;;;;;3.83;2.33;;;29.70;59.90;;;;;;5136084;27;20410;-68
2023/07/14 09:07:00;;;;;;;5.95;2.33;;;31.80;55.90;;;;;;5134234;27;20035;-68
2023/07/14 09:09:31;;;;;;;3.83;2.00;;;34.90;52.00;;;;;;5142335;27;20079;-68
2023/07/14 09:12:18;;;;;;;5.82;2.00;;;34.10;51.40;;;;;;5134076;27;20031;-69
2023/07/14 09:14:56;;;;;;;3.72;1.95;;;32.20;50.80;;;;;;5145225;27;20028;-68
2023/07/14 09:17:27;;;;;;;4.03;2.30;;;36.40;50.10;;;;;;5141768;27;20022;-69
2023/07/14 09:20:25;;;;;;;3.53;2.05;;;36.10;48.30;;;;;;5135972;27;20124;-68
2023/07/14 09:23:15;;;;;;;16.40;2.30;;;38.80;49.80;;;;;;5114465;27;20479;-69
2023/07/14 09:26:04;;;;;;;4.68;2.10;;;37.30;46.20;;;;;;5133457;27;20077;-67
2023/07/14 09:28:40;;;;;;;2.97;1.88;;;38.60;46.40;;;;;;5135598;27;20095;-67
2023/07/14 09:31:37;;;;;;;3.38;2.00;;;40.50;45.20;;;;;;5140660;27;20125;-69
2023/07/14 09:34:11;;;;;;;2.80;1.63;;;38.40;43.80;;;;;;5139539;27;20035;-68
2023/07/14 09:36:38;;;;;;;4.85;2.20;;;38.10;44.80;;;;;;5135718;27;20023;-68
2023/07/14 09:39:10;;;;;;;3.95;1.73;;;37.70;46.60;;;;;;5139016;27;20538;-67
2023/07/14 09:41:35;;;;;;;2.20;1.63;;;36.10;48.00;;;;;;5133909;27;20421;-68
2023/07/14 09:44:01;;;;;;;2.45;1.58;;;37.20;48.70;;;;;;5135973;27;20039;-68
2023/07/14 09:46:46;;;;;;;4.47;2.00;;;37.80;45.40;;;;;;5134588;27;20030;-68
2023/07/14 09:49:40;;;;;;;2.85;1.85;;;38.30;47.90;;;;;;5139231;27;20077;-69
2023/07/14 09:52:15;;;;;;;3.47;2.00;;;37.10;47.50;;;;;;5134853;27;20054;-70
2023/07/14 09:54:54;;;;;;;3.60;1.95;;;36.20;47.50;;;;;;5134437;27;20442;-69
2023/07/14 09:57:23;;;;;;;3.80;1.70;;;37.90;48.00;;;;;;5137645;27;20023;-71
2023/07/14 09:59:58;;;;;;;4.15;1.73;;;40.40;46.00;;;;;;5138003;27;20037;-69
2023/07/14 10:02:32;;;;;;;4.78;1.90;;;41.10;46.90;;;;;;5140160;27;20035;-69
2023/07/14 10:05:16;;;;;;;3.47;1.70;;;39.40;48.70;;;;;;5138159;27;20035;-70
2023/07/14 10:07:42;;;;;;;3.20;1.33;;;39.90;47.90;;;;;;5135863;27;20023;-69
2023/07/14 10:10:12;;;;;;;4.68;2.00;;;39.60;45.40;;;;;;5138292;27;20425;-71
2023/07/14 10:12:47;;;;;;;6.10;2.40;;;39.70;45.80;;;;;;5137266;27;20149;-69
2023/07/14 10:15:23;;;;;;;5.88;1.77;;;41.70;47.20;;;;;;5135189;27;20018;-69
2023/07/14 10:17:54;;;;;;;3.83;1.70;;;41.40;44.70;;;;;;5137572;27;20482;-69
2023/07/14 10:20:22;;;;;;;3.45;1.80;;;40.60;45.40;;;;;;5135857;27;20316;-70
2023/07/14 10:22:54;;;;;;;4.85;1.90;;;41.90;45.00;;;;;;5136157;27;20072;-69
2023/07/14 10:25:21;;;;;;;4.03;1.90;;;42.70;45.50;;;;;;5143349;27;20391;-70
2023/07/14 10:28:03;;;;;;;2.88;1.90;;;41.20;44.30;;;;;;5136492;27;20031;-70
2023/07/14 10:30:29;;;;;;;2.60;1.60;;;39.70;47.70;;;;;;5134534;27;20015;-69
2023/07/14 10:32:59;;;;;;;2.75;1.80;;;35.80;49.20;;;;;;5138122;27;20062;-69
2023/07/14 10:35:29;;;;;;;7.80;1.83;;;34.60;52.70;;;;;;5145030;27;20037;-69
2023/07/14 10:38:14;;;;;;;6.35;1.42;;;33.10;54.50;;;;;;5139814;27;20031;-70
2023/07/14 10:40:50;;;;;;;4.47;2.28;;;30.80;56.60;;;;;;5139048;27;20042;-68
2023/07/14 10:43:52;;;;;;;4.72;2.30;;;30.40;58.40;;;;;;5142259;27;20026;-68
2023/07/14 10:46:30;;;;;;;2.92;1.85;;;30.80;60.40;;;;;;5136736;27;20058;-71
2023/07/14 10:49:16;;;;;;;4.97;1.77;;;30.90;60.60;;;;;;5143188;27;20502;-74
2023/07/14 10:51:48;;;;;;;3.55;1.73;;;30.50;60.00;;;;;;5129582;27;20549;-74
2023/07/14 10:54:18;;;;;;;6.15;2.00;;;30.80;61.90;;;;;;5142384;27;20335;-74
2023/07/14 10:56:47;;;;;;;3.95;1.85;;;30.70;58.60;;;;;;5140595;27;20043;-74
2023/07/14 10:59:40;;;;;;;2.30;1.38;;;30.20;59.40;;;;;;5143456;27;20035;-74
2023/07/14 11:02:34;;;;;;;3.38;1.48;;;30.30;58.90;;;;;;5140236;27;20035;-73
2023/07/14 11:05:05;;;;;;;3.33;1.70;;;30.20;55.90;;;;;;5136287;27;20866;-75
2023/07/14 11:07:33;;;;;;;3.72;1.60;;;30.40;58.10;;;;;;5137618;27;20117;-74
2023/07/14 11:10:00;;;;;;;3.63;1.58;;;30.40;59.80;;;;;;5140179;27;20031;-72
2023/07/14 11:12:48;;;;;;;3.08;2.00;;;30.60;57.00;;;;;;5138057;27;20153;-74
2023/07/14 11:15:20;;;;;;;5.18;1.60;;;30.30;59.40;;;;;;5146589;27;20094;-77
2023/07/14 11:18:18;;;;;;;2.25;1.50;;;30.50;57.80;;;;;;5142693;27;20058;-77
2023/07/14 11:20:59;;;;;;;4.78;1.90;;;30.10;55.00;;;;;;5134183;27;20409;-77
2023/07/14 11:23:56;;;;;;;4.10;2.10;;;30.00;56.80;;;;;;5140459;27;20014;-77
2023/07/14 11:26:28;;;;;;;5.10;1.50;;;30.40;57.80;;;;;;5141042;27;20031;-77
2023/07/14 11:29:18;;;;;;;3.03;1.77;;;30.30;58.60;;;;;;5144404;27;20513;-77
2023/07/14 11:31:57;;;;;;;2.22;1.60;;;30.40;60.10;;;;;;5141740;27;20023;-77
2023/07/14 11:34:33;;;;;;;3.08;1.75;;;30.50;58.40;;;;;;5138535;27;20065;-77
2023/07/14 11:37:15;;;;;;;6.63;1.80;;;30.30;58.00;;;;;;5142113;27;20072;-78
2023/07/14 11:39:46;;;;;;;5.18;2.30;;;29.80;56.00;;;;;;5139279;27;20048;-78
2023/07/14 11:42:22;;;;;;;4.22;1.95;;;29.90;59.50;;;;;;5143214;27;20018;-78
2023/07/14 11:44:50;;;;;;;2.75;1.70;;;30.10;56.40;;;;;;5132843;27;20095;-78
2023/07/14 11:47:23;;;;;;;7.40;2.78;;;30.30;56.50;;;;;;5139316;27;20038;-77
2023/07/14 11:49:53;;;;;;;12.40;1.88;;;30.30;56.30;;;;;;5140557;27;20597;-78
2023/07/14 11:52:27;;;;;;;6.72;2.10;;;30.20;57.90;;;;;;5143742;27;20019;-77
2023/07/14 11:54:52;;;;;;;7.03;1.67;;;29.90;56.70;;;;;;5139589;27;20501;-78
2023/07/14 11:57:20;;;;;;;5.70;2.05;;;29.70;57.00;;;;;;5134556;27;20054;-77
2023/07/14 12:00:05;;;;;;;5.10;1.90;;;29.60;56.40;;;;;;5142549;27;20564;-77
2023/07/14 12:02:46;;;;;;;3.80;1.98;;;29.60;60.20;;;;;;5142337;27;20007;-77
2023/07/14 12:05:15;;;;;;;4.68;1.83;;;30.00;59.80;;;;;;5141034;27;20071;-76
2023/07/14 12:08:13;;;;;;;4.75;1.85;;;30.00;58.40;;;;;;5142640;27;20375;-77
2023/07/14 12:10:39;;;;;;;5.45;1.80;;;30.50;60.20;;;;;;5143402;27;20031;-77
2023/07/14 12:13:20;;;;;;;2.97;1.50;;;30.60;58.00;;;;;;5140679;27;20083;-78
2023/07/14 12:15:47;;;;;;;3.72;1.58;;;29.90;56.50;;;;;;5140444;27;20753;-77
2023/07/14 12:18:22;;;;;;;3.70;1.80;;;30.10;57.70;;;;;;5142404;27;20024;-78
2023/07/14 12:20:48;;;;;;;5.03;1.60;;;30.20;56.80;;;;;;5141329;27;20046;-77
2023/07/14 12:23:29;;;;;;;2.53;1.40;;;30.30;58.80;;;;;;5140764;27;20094;-78
2023/07/14 12:26:02;;;;;;;2.45;1.75;;;30.50;57.20;;;;;;5140981;27;20050;-77
2023/07/14 12:28:33;;;;;;;3.22;1.80;;;30.40;57.90;;;;;;5139972;27;20151;-77
2023/07/14 12:31:03;;;;;;;3.38;1.73;;;30.70;56.40;;;;;;5140891;27;20019;-77
2023/07/14 12:33:29;;;;;;;2.35;1.65;;;30.50;57.90;;;;;;5137739;27;20217;-77
2023/07/14 12:35:54;;;;;;;2.90;1.60;;;30.70;56.50;;;;;;5137476;27;20545;-77
2023/07/14 12:38:22;;;;;;;2.33;1.40;;;30.60;57.70;;;;;;5143976;27;20100;-77
2023/07/14 12:40:51;;;;;;;3.03;1.40;;;30.60;59.80;;;;;;5136249;27;20035;-78
2023/07/14 12:43:29;;;;;;;2.65;1.92;;;30.70;58.50;;;;;;5133238;27;20027;-78
2023/07/14 12:45:56;;;;;;;3.30;1.60;;;30.70;56.10;;;;;;5143515;27;20027;-78
2023/07/14 12:48:28;;;;;;;4.10;1.50;;;30.70;57.80;;;;;;5139676;27;20544;-78
2023/07/14 12:50:55;;;;;;;2.20;1.38;;;30.60;55.60;;;;;;5136627;27;20019;-77
2023/07/14 12:53:21;;;;;;;2.58;1.42;;;30.70;56.20;;;;;;5137302;27;20027;-78
2023/07/14 12:55:46;;;;;;;3.80;1.60;;;30.60;57.70;;;;;;5131148;27;20431;-77
2023/07/14 12:58:24;;;;;;;2.92;1.40;;;30.80;56.60;;;;;;5138626;27;20035;-78
2023/07/14 13:00:54;;;;;;;4.43;1.60;;;30.60;55.90;;;;;;5133881;27;20087;-77
2023/07/14 13:03:20;;;;;;;10.50;1.77;;;30.60;57.00;;;;;;5138161;27;20045;-78
2023/07/14 13:05:48;;;;;;;4.07;1.90;;;30.80;55.30;;;;;;5139706;27;20544;-78